sensor_id;sensor_type;location;lat;lon;timestamp;P1;durP1;ratioP1;P2;durP2;ratioP2
51499;SDS011;39101;53.478;6.158;2023-05-10T00:00:38;26.67;;;20.77;;
51499;SDS011;39101;53.478;6.158;2023-05-10T00:03:04;33.40;;;22.42;;
51499;SDS011;39101;53.478;6.158;2023-05-10T00:05:30;27.25;;;20.33;;
51499;SDS011;39101;53.478;6.158;2023-05-10T00:07:56;25.10;;;18.55;;
51499;SDS011;39101;53.478;6.158;2023-05-10T00:10:22;28.00;;;18.85;;
51499;SDS011;39101;53.478;6.158;2023-05-10T00:12:48;24.42;;;16.95;;
51499;SDS011;39101;53.478;6.158;2023-05-10T00:15:13;24.67;;;16.00;;
51499;SDS011;39101;53.478;6.158;2023-05-10T00:17:39;26.77;;;15.05;;
51499;SDS011;39101;53.478;6.158;2023-05-10T00:20:05;23.88;;;13.82;;
51499;SDS011;39101;53.478;6.158;2023-05-10T00:22:31;27.38;;;14.25;;
51499;SDS011;39101;53.478;6.158;2023-05-10T00:24:58;27.15;;;14.52;;
51499;SDS011;39101;53.478;6.158;2023-05-10T00:27:23;24.77;;;14.57;;
51499;SDS011;39101;53.478;6.158;2023-05-10T00:29:49;23.00;;;12.63;;
51499;SDS011;39101;53.478;6.158;2023-05-10T00:32:15;28.20;;;14.90;;
51499;SDS011;39101;53.478;6.158;2023-05-10T00:34:41;26.77;;;14.68;;
51499;SDS011;39101;53.478;6.158;2023-05-10T00:37:07;30.10;;;15.00;;
51499;SDS011;39101;53.478;6.158;2023-05-10T00:39:32;27.35;;;14.43;;
51499;SDS011;39101;53.478;6.158;2023-05-10T00:41:58;27.23;;;15.45;;
51499;SDS011;39101;53.478;6.158;2023-05-10T00:44:25;28.92;;;15.43;;
51499;SDS011;39101;53.478;6.158;2023-05-10T00:46:50;25.30;;;13.93;;
51499;SDS011;39101;53.478;6.158;2023-05-10T00:49:16;25.17;;;14.27;;
51499;SDS011;39101;53.478;6.158;2023-05-10T00:51:42;28.77;;;14.82;;
51499;SDS011;39101;53.478;6.158;2023-05-10T00:54:12;24.15;;;13.57;;
51499;SDS011;39101;53.478;6.158;2023-05-10T00:56:40;26.67;;;14.63;;
51499;SDS011;39101;53.478;6.158;2023-05-10T00:59:06;25.55;;;14.88;;
51499;SDS011;39101;53.478;6.158;2023-05-10T01:01:35;21.67;;;13.55;;
51499;SDS011;39101;53.478;6.158;2023-05-10T01:04:01;22.55;;;14.25;;
51499;SDS011;39101;53.478;6.158;2023-05-10T01:06:28;23.40;;;14.18;;
51499;SDS011;39101;53.478;6.158;2023-05-10T01:08:54;24.42;;;14.73;;
51499;SDS011;39101;53.478;6.158;2023-05-10T01:11:20;23.77;;;13.88;;
51499;SDS011;39101;53.478;6.158;2023-05-10T01:13:47;23.33;;;14.57;;
51499;SDS011;39101;53.478;6.158;2023-05-10T01:16:21;21.52;;;13.40;;
51499;SDS011;39101;53.478;6.158;2023-05-10T01:18:47;18.13;;;12.02;;
51499;SDS011;39101;53.478;6.158;2023-05-10T01:21:19;14.70;;;10.00;;
51499;SDS011;39101;53.478;6.158;2023-05-10T01:32:36;12.02;;;9.23;;
51499;SDS011;39101;53.478;6.158;2023-05-10T01:35:06;14.00;;;9.15;;
51499;SDS011;39101;53.478;6.158;2023-05-10T01:37:44;11.63;;;9.13;;
51499;SDS011;39101;53.478;6.158;2023-05-10T01:42:51;17.30;;;11.48;;
51499;SDS011;39101;53.478;6.158;2023-05-10T01:48:21;12.60;;;7.90;;
51499;SDS011;39101;53.478;6.158;2023-05-10T01:50:49;8.55;;;6.00;;
51499;SDS011;39101;53.478;6.158;2023-05-10T01:53:17;9.00;;;5.80;;
51499;SDS011;39101;53.478;6.158;2023-05-10T01:55:49;9.80;;;5.40;;
51499;SDS011;39101;53.478;6.158;2023-05-10T01:58:20;7.35;;;3.65;;
51499;SDS011;39101;53.478;6.158;2023-05-10T02:00:55;5.32;;;3.45;;
51499;SDS011;39101;53.478;6.158;2023-05-10T02:03:23;5.40;;;2.53;;
51499;SDS011;39101;53.478;6.158;2023-05-10T02:05:52;5.60;;;3.20;;
51499;SDS011;39101;53.478;6.158;2023-05-10T02:08:19;4.93;;;3.30;;
51499;SDS011;39101;53.478;6.158;2023-05-10T02:10:47;3.72;;;2.40;;
51499;SDS011;39101;53.478;6.158;2023-05-10T02:13:16;5.07;;;3.25;;
51499;SDS011;39101;53.478;6.158;2023-05-10T02:15:43;5.97;;;3.22;;
51499;SDS011;39101;53.478;6.158;2023-05-10T02:18:13;3.97;;;2.78;;
51499;SDS011;39101;53.478;6.158;2023-05-10T02:20:40;5.82;;;3.10;;
51499;SDS011;39101;53.478;6.158;2023-05-10T02:23:08;4.75;;;3.55;;
51499;SDS011;39101;53.478;6.158;2023-05-10T02:25:34;6.25;;;4.10;;
51499;SDS011;39101;53.478;6.158;2023-05-10T02:28:04;6.40;;;3.47;;
51499;SDS011;39101;53.478;6.158;2023-05-10T02:30:31;5.75;;;3.53;;
51499;SDS011;39101;53.478;6.158;2023-05-10T02:32:59;6.05;;;4.45;;
51499;SDS011;39101;53.478;6.158;2023-05-10T02:35:27;6.45;;;4.93;;
51499;SDS011;39101;53.478;6.158;2023-05-10T02:37:53;10.20;;;4.38;;
51499;SDS011;39101;53.478;6.158;2023-05-10T02:40:19;6.40;;;4.50;;
51499;SDS011;39101;53.478;6.158;2023-05-10T02:42:48;6.82;;;4.97;;
51499;SDS011;39101;53.478;6.158;2023-05-10T02:45:18;6.70;;;5.50;;
51499;SDS011;39101;53.478;6.158;2023-05-10T02:47:47;6.47;;;5.13;;
51499;SDS011;39101;53.478;6.158;2023-05-10T02:50:13;6.75;;;3.92;;
51499;SDS011;39101;53.478;6.158;2023-05-10T02:52:40;5.45;;;4.88;;
51499;SDS011;39101;53.478;6.158;2023-05-10T02:55:10;6.93;;;4.57;;
51499;SDS011;39101;53.478;6.158;2023-05-10T02:57:40;5.90;;;4.20;;
51499;SDS011;39101;53.478;6.158;2023-05-10T03:00:16;4.60;;;3.50;;
51499;SDS011;39101;53.478;6.158;2023-05-10T03:02:42;6.00;;;4.68;;
51499;SDS011;39101;53.478;6.158;2023-05-10T03:05:08;7.47;;;6.00;;
51499;SDS011;39101;53.478;6.158;2023-05-10T03:07:33;9.85;;;7.55;;
51499;SDS011;39101;53.478;6.158;2023-05-10T03:09:59;10.90;;;7.72;;
51499;SDS011;39101;53.478;6.158;2023-05-10T03:18:24;8.38;;;6.85;;
51499;SDS011;39101;53.478;6.158;2023-05-10T03:21:02;7.32;;;6.22;;
51499;SDS011;39101;53.478;6.158;2023-05-10T03:23:34;7.38;;;6.10;;
51499;SDS011;39101;53.478;6.158;2023-05-10T03:26:17;7.65;;;6.20;;
51499;SDS011;39101;53.478;6.158;2023-05-10T03:28:51;8.25;;;6.15;;
51499;SDS011;39101;53.478;6.158;2023-05-10T03:31:18;6.28;;;4.97;;
51499;SDS011;39101;53.478;6.158;2023-05-10T03:33:47;7.15;;;5.05;;
51499;SDS011;39101;53.478;6.158;2023-05-10T03:36:17;5.38;;;3.53;;
51499;SDS011;39101;53.478;6.158;2023-05-10T03:38:43;7.70;;;4.15;;
51499;SDS011;39101;53.478;6.158;2023-05-10T03:41:08;4.00;;;2.95;;
51499;SDS011;39101;53.478;6.158;2023-05-10T03:43:34;4.90;;;3.55;;
51499;SDS011;39101;53.478;6.158;2023-05-10T03:46:03;5.90;;;3.97;;
51499;SDS011;39101;53.478;6.158;2023-05-10T03:48:30;5.78;;;3.85;;
51499;SDS011;39101;53.478;6.158;2023-05-10T03:50:56;5.40;;;4.38;;
51499;SDS011;39101;53.478;6.158;2023-05-10T03:53:22;4.57;;;3.83;;
51499;SDS011;39101;53.478;6.158;2023-05-10T03:55:48;6.35;;;4.32;;
51499;SDS011;39101;53.478;6.158;2023-05-10T03:58:14;4.63;;;4.00;;
51499;SDS011;39101;53.478;6.158;2023-05-10T04:00:40;5.35;;;4.20;;
51499;SDS011;39101;53.478;6.158;2023-05-10T04:03:10;5.40;;;4.53;;
51499;SDS011;39101;53.478;6.158;2023-05-10T04:05:36;7.53;;;5.30;;
51499;SDS011;39101;53.478;6.158;2023-05-10T04:08:02;6.20;;;4.53;;
51499;SDS011;39101;53.478;6.158;2023-05-10T04:10:28;7.97;;;5.78;;
51499;SDS011;39101;53.478;6.158;2023-05-10T04:12:54;6.00;;;4.57;;
51499;SDS011;39101;53.478;6.158;2023-05-10T04:15:19;6.32;;;4.53;;
51499;SDS011;39101;53.478;6.158;2023-05-10T04:17:45;7.45;;;5.38;;
51499;SDS011;39101;53.478;6.158;2023-05-10T04:20:11;6.75;;;5.20;;
51499;SDS011;39101;53.478;6.158;2023-05-10T04:22:37;7.93;;;5.10;;
51499;SDS011;39101;53.478;6.158;2023-05-10T04:25:03;8.48;;;5.07;;
51499;SDS011;39101;53.478;6.158;2023-05-10T04:27:29;8.88;;;6.43;;
51499;SDS011;39101;53.478;6.158;2023-05-10T04:29:56;6.40;;;4.90;;
51499;SDS011;39101;53.478;6.158;2023-05-10T04:32:22;7.55;;;5.65;;
51499;SDS011;39101;53.478;6.158;2023-05-10T04:34:47;8.80;;;6.45;;
51499;SDS011;39101;53.478;6.158;2023-05-10T04:37:13;13.43;;;7.72;;
51499;SDS011;39101;53.478;6.158;2023-05-10T04:39:39;11.18;;;6.85;;
51499;SDS011;39101;53.478;6.158;2023-05-10T04:42:05;13.70;;;9.18;;
51499;SDS011;39101;53.478;6.158;2023-05-10T04:44:31;11.80;;;8.25;;
51499;SDS011;39101;53.478;6.158;2023-05-10T04:46:57;12.57;;;7.53;;
51499;SDS011;39101;53.478;6.158;2023-05-10T04:49:23;10.65;;;6.70;;
51499;SDS011;39101;53.478;6.158;2023-05-10T04:51:49;8.77;;;5.78;;
51499;SDS011;39101;53.478;6.158;2023-05-10T04:54:14;12.60;;;6.13;;
51499;SDS011;39101;53.478;6.158;2023-05-10T04:56:40;6.78;;;4.38;;
51499;SDS011;39101;53.478;6.158;2023-05-10T04:59:06;7.35;;;4.78;;
51499;SDS011;39101;53.478;6.158;2023-05-10T05:01:31;8.80;;;6.13;;
51499;SDS011;39101;53.478;6.158;2023-05-10T05:03:57;9.93;;;5.95;;
51499;SDS011;39101;53.478;6.158;2023-05-10T05:06:23;19.63;;;7.57;;
51499;SDS011;39101;53.478;6.158;2023-05-10T05:08:50;13.77;;;6.25;;
51499;SDS011;39101;53.478;6.158;2023-05-10T05:11:19;14.55;;;8.43;;
51499;SDS011;39101;53.478;6.158;2023-05-10T05:13:46;17.88;;;7.75;;
51499;SDS011;39101;53.478;6.158;2023-05-10T05:16:11;19.38;;;8.23;;
51499;SDS011;39101;53.478;6.158;2023-05-10T05:18:37;24.95;;;8.90;;
51499;SDS011;39101;53.478;6.158;2023-05-10T05:21:12;17.45;;;9.93;;
51499;SDS011;39101;53.478;6.158;2023-05-10T05:23:42;16.65;;;10.55;;
51499;SDS011;39101;53.478;6.158;2023-05-10T05:26:07;14.77;;;10.15;;
51499;SDS011;39101;53.478;6.158;2023-05-10T05:28:33;13.43;;;8.80;;
51499;SDS011;39101;53.478;6.158;2023-05-10T05:31:02;16.55;;;10.10;;
51499;SDS011;39101;53.478;6.158;2023-05-10T05:33:28;11.35;;;9.02;;
51499;SDS011;39101;53.478;6.158;2023-05-10T05:35:54;9.18;;;7.85;;
51499;SDS011;39101;53.478;6.158;2023-05-10T05:38:19;8.27;;;5.43;;
51499;SDS011;39101;53.478;6.158;2023-05-10T05:40:45;7.55;;;6.45;;
51499;SDS011;39101;53.478;6.158;2023-05-10T05:43:11;10.55;;;8.93;;
51499;SDS011;39101;53.478;6.158;2023-05-10T05:45:36;8.05;;;6.80;;
51499;SDS011;39101;53.478;6.158;2023-05-10T05:48:02;12.15;;;9.20;;
51499;SDS011;39101;53.478;6.158;2023-05-10T05:50:28;14.35;;;10.65;;
51499;SDS011;39101;53.478;6.158;2023-05-10T05:52:54;13.32;;;9.68;;
51499;SDS011;39101;53.478;6.158;2023-05-10T05:55:20;10.95;;;8.02;;
51499;SDS011;39101;53.478;6.158;2023-05-10T05:57:46;9.40;;;7.20;;
51499;SDS011;39101;53.478;6.158;2023-05-10T06:00:12;6.63;;;4.30;;
51499;SDS011;39101;53.478;6.158;2023-05-10T06:02:38;10.18;;;5.72;;
51499;SDS011;39101;53.478;6.158;2023-05-10T06:05:04;12.43;;;6.97;;
51499;SDS011;39101;53.478;6.158;2023-05-10T06:07:29;8.48;;;5.97;;
51499;SDS011;39101;53.478;6.158;2023-05-10T06:09:55;9.15;;;5.55;;
51499;SDS011;39101;53.478;6.158;2023-05-10T06:12:21;10.63;;;5.90;;
51499;SDS011;39101;53.478;6.158;2023-05-10T06:14:46;7.78;;;5.43;;
51499;SDS011;39101;53.478;6.158;2023-05-10T06:17:12;12.43;;;5.63;;
51499;SDS011;39101;53.478;6.158;2023-05-10T06:19:38;12.20;;;6.00;;
51499;SDS011;39101;53.478;6.158;2023-05-10T06:22:03;9.85;;;5.10;;
51499;SDS011;39101;53.478;6.158;2023-05-10T06:24:29;13.45;;;5.90;;
51499;SDS011;39101;53.478;6.158;2023-05-10T06:26:55;14.48;;;6.35;;
51499;SDS011;39101;53.478;6.158;2023-05-10T06:29:20;13.73;;;5.72;;
51499;SDS011;39101;53.478;6.158;2023-05-10T06:31:46;15.55;;;5.63;;
51499;SDS011;39101;53.478;6.158;2023-05-10T06:34:11;13.10;;;4.88;;
51499;SDS011;39101;53.478;6.158;2023-05-10T06:36:38;11.27;;;4.88;;
51499;SDS011;39101;53.478;6.158;2023-05-10T06:39:04;12.07;;;5.53;;
51499;SDS011;39101;53.478;6.158;2023-05-10T06:41:30;7.10;;;3.88;;
51499;SDS011;39101;53.478;6.158;2023-05-10T06:43:56;10.18;;;4.32;;
51499;SDS011;39101;53.478;6.158;2023-05-10T06:46:21;7.45;;;4.53;;
51499;SDS011;39101;53.478;6.158;2023-05-10T06:48:47;8.23;;;5.47;;
51499;SDS011;39101;53.478;6.158;2023-05-10T06:51:13;3.53;;;2.78;;
51499;SDS011;39101;53.478;6.158;2023-05-10T06:53:38;6.45;;;4.13;;
51499;SDS011;39101;53.478;6.158;2023-05-10T06:56:04;5.53;;;2.95;;
51499;SDS011;39101;53.478;6.158;2023-05-10T06:58:30;6.47;;;3.67;;
51499;SDS011;39101;53.478;6.158;2023-05-10T07:01:01;10.18;;;3.95;;
51499;SDS011;39101;53.478;6.158;2023-05-10T07:03:28;12.25;;;4.28;;
51499;SDS011;39101;53.478;6.158;2023-05-10T07:05:59;8.43;;;4.70;;
51499;SDS011;39101;53.478;6.158;2023-05-10T07:08:32;6.90;;;4.40;;
51499;SDS011;39101;53.478;6.158;2023-05-10T07:11:01;6.07;;;3.72;;
51499;SDS011;39101;53.478;6.158;2023-05-10T07:13:28;7.07;;;3.85;;
51499;SDS011;39101;53.478;6.158;2023-05-10T07:15:57;11.18;;;4.05;;
51499;SDS011;39101;53.478;6.158;2023-05-10T07:18:23;9.82;;;4.95;;
51499;SDS011;39101;53.478;6.158;2023-05-10T07:20:49;5.80;;;3.97;;
51499;SDS011;39101;53.478;6.158;2023-05-10T07:23:15;4.85;;;3.33;;
51499;SDS011;39101;53.478;6.158;2023-05-10T07:25:44;7.63;;;3.97;;
51499;SDS011;39101;53.478;6.158;2023-05-10T07:28:14;8.18;;;4.10;;
51499;SDS011;39101;53.478;6.158;2023-05-10T07:30:41;13.07;;;3.47;;
51499;SDS011;39101;53.478;6.158;2023-05-10T07:33:08;13.68;;;3.90;;
51499;SDS011;39101;53.478;6.158;2023-05-10T07:35:35;9.60;;;3.28;;
51499;SDS011;39101;53.478;6.158;2023-05-10T07:38:01;11.13;;;4.13;;
51499;SDS011;39101;53.478;6.158;2023-05-10T07:40:27;17.42;;;8.80;;
51499;SDS011;39101;53.478;6.158;2023-05-10T07:42:53;12.15;;;5.63;;
51499;SDS011;39101;53.478;6.158;2023-05-10T07:45:19;10.35;;;5.18;;
51499;SDS011;39101;53.478;6.158;2023-05-10T07:47:44;8.20;;;3.67;;
51499;SDS011;39101;53.478;6.158;2023-05-10T07:50:10;12.45;;;5.53;;
51499;SDS011;39101;53.478;6.158;2023-05-10T07:52:36;9.82;;;4.43;;
51499;SDS011;39101;53.478;6.158;2023-05-10T07:55:01;10.38;;;4.65;;
51499;SDS011;39101;53.478;6.158;2023-05-10T07:57:27;11.73;;;4.80;;
51499;SDS011;39101;53.478;6.158;2023-05-10T07:59:53;13.43;;;4.95;;
51499;SDS011;39101;53.478;6.158;2023-05-10T08:02:18;9.55;;;6.10;;
51499;SDS011;39101;53.478;6.158;2023-05-10T08:04:44;9.57;;;5.15;;
51499;SDS011;39101;53.478;6.158;2023-05-10T08:07:10;11.90;;;5.22;;
51499;SDS011;39101;53.478;6.158;2023-05-10T08:09:36;6.22;;;4.38;;
51499;SDS011;39101;53.478;6.158;2023-05-10T08:12:02;8.68;;;5.50;;
51499;SDS011;39101;53.478;6.158;2023-05-10T08:14:28;8.98;;;6.05;;
51499;SDS011;39101;53.478;6.158;2023-05-10T08:16:54;14.63;;;7.88;;
51499;SDS011;39101;53.478;6.158;2023-05-10T08:19:20;16.10;;;8.25;;
51499;SDS011;39101;53.478;6.158;2023-05-10T08:21:47;16.80;;;8.52;;
51499;SDS011;39101;53.478;6.158;2023-05-10T08:24:13;26.65;;;8.20;;
51499;SDS011;39101;53.478;6.158;2023-05-10T08:26:40;12.65;;;8.73;;
51499;SDS011;39101;53.478;6.158;2023-05-10T08:29:05;17.80;;;8.73;;
51499;SDS011;39101;53.478;6.158;2023-05-10T08:31:31;22.25;;;8.77;;
51499;SDS011;39101;53.478;6.158;2023-05-10T08:33:57;26.00;;;7.43;;
51499;SDS011;39101;53.478;6.158;2023-05-10T08:36:22;18.10;;;8.18;;
51499;SDS011;39101;53.478;6.158;2023-05-10T08:38:53;17.30;;;8.90;;
51499;SDS011;39101;53.478;6.158;2023-05-10T08:43:46;23.85;;;5.75;;
51499;SDS011;39101;53.478;6.158;2023-05-10T08:46:16;13.02;;;7.25;;
51499;SDS011;39101;53.478;6.158;2023-05-10T08:48:44;13.55;;;5.93;;
51499;SDS011;39101;53.478;6.158;2023-05-10T08:51:17;13.43;;;6.25;;
51499;SDS011;39101;53.478;6.158;2023-05-10T08:53:45;18.23;;;7.53;;
51499;SDS011;39101;53.478;6.158;2023-05-10T08:56:10;8.65;;;4.90;;
51499;SDS011;39101;53.478;6.158;2023-05-10T08:58:37;7.35;;;4.68;;
51499;SDS011;39101;53.478;6.158;2023-05-10T09:01:03;7.28;;;4.30;;
51499;SDS011;39101;53.478;6.158;2023-05-10T09:03:30;6.97;;;3.90;;
51499;SDS011;39101;53.478;6.158;2023-05-10T09:05:57;8.68;;;4.72;;
51499;SDS011;39101;53.478;6.158;2023-05-10T09:08:23;6.88;;;3.63;;
51499;SDS011;39101;53.478;6.158;2023-05-10T09:10:52;7.57;;;4.10;;
51499;SDS011;39101;53.478;6.158;2023-05-10T09:13:19;6.22;;;4.18;;
51499;SDS011;39101;53.478;6.158;2023-05-10T09:15:46;6.55;;;4.72;;
51499;SDS011;39101;53.478;6.158;2023-05-10T09:18:12;5.53;;;4.03;;
51499;SDS011;39101;53.478;6.158;2023-05-10T09:20:38;5.47;;;4.05;;
51499;SDS011;39101;53.478;6.158;2023-05-10T09:23:05;8.25;;;5.38;;
51499;SDS011;39101;53.478;6.158;2023-05-10T09:25:30;8.52;;;6.28;;
51499;SDS011;39101;53.478;6.158;2023-05-10T09:27:58;6.63;;;4.72;;
51499;SDS011;39101;53.478;6.158;2023-05-10T09:32:54;6.15;;;4.25;;
51499;SDS011;39101;53.478;6.158;2023-05-10T09:35:21;6.43;;;3.70;;
51499;SDS011;39101;53.478;6.158;2023-05-10T09:37:50;6.30;;;3.17;;
51499;SDS011;39101;53.478;6.158;2023-05-10T09:40:28;6.75;;;3.63;;
51499;SDS011;39101;53.478;6.158;2023-05-10T09:45:26;8.20;;;5.53;;
51499;SDS011;39101;53.478;6.158;2023-05-10T09:47:53;10.43;;;6.25;;
51499;SDS011;39101;53.478;6.158;2023-05-10T09:50:19;9.73;;;6.07;;
51499;SDS011;39101;53.478;6.158;2023-05-10T09:52:50;8.13;;;5.38;;
51499;SDS011;39101;53.478;6.158;2023-05-10T09:55:18;7.13;;;5.25;;
51499;SDS011;39101;53.478;6.158;2023-05-10T09:57:48;7.60;;;4.63;;
51499;SDS011;39101;53.478;6.158;2023-05-10T10:00:23;7.72;;;4.28;;
51499;SDS011;39101;53.478;6.158;2023-05-10T10:02:59;6.97;;;5.30;;
51499;SDS011;39101;53.478;6.158;2023-05-10T10:05:28;6.90;;;5.88;;
51499;SDS011;39101;53.478;6.158;2023-05-10T10:07:59;9.98;;;6.80;;
51499;SDS011;39101;53.478;6.158;2023-05-10T10:10:26;11.25;;;6.93;;
51499;SDS011;39101;53.478;6.158;2023-05-10T10:12:52;10.63;;;6.13;;
51499;SDS011;39101;53.478;6.158;2023-05-10T10:15:20;9.18;;;6.32;;
51499;SDS011;39101;53.478;6.158;2023-05-10T10:17:47;8.60;;;5.78;;
51499;SDS011;39101;53.478;6.158;2023-05-10T10:20:14;10.35;;;6.45;;
51499;SDS011;39101;53.478;6.158;2023-05-10T10:22:40;8.85;;;5.97;;
51499;SDS011;39101;53.478;6.158;2023-05-10T10:25:07;8.70;;;6.25;;
51499;SDS011;39101;53.478;6.158;2023-05-10T10:30:31;12.40;;;6.32;;
51499;SDS011;39101;53.478;6.158;2023-05-10T10:35:54;13.48;;;7.07;;
51499;SDS011;39101;53.478;6.158;2023-05-10T10:38:22;12.57;;;9.10;;
51499;SDS011;39101;53.478;6.158;2023-05-10T10:40:48;15.20;;;8.85;;
51499;SDS011;39101;53.478;6.158;2023-05-10T10:43:27;19.85;;;11.70;;
51499;SDS011;39101;53.478;6.158;2023-05-10T10:46:13;16.00;;;9.07;;
51499;SDS011;39101;53.478;6.158;2023-05-10T10:48:39;13.10;;;9.57;;
51499;SDS011;39101;53.478;6.158;2023-05-10T10:51:06;10.40;;;7.35;;
51499;SDS011;39101;53.478;6.158;2023-05-10T10:53:32;11.88;;;7.80;;
51499;SDS011;39101;53.478;6.158;2023-05-10T10:56:07;11.30;;;7.70;;
51499;SDS011;39101;53.478;6.158;2023-05-10T10:58:35;12.68;;;9.05;;
51499;SDS011;39101;53.478;6.158;2023-05-10T11:01:13;14.50;;;10.75;;
51499;SDS011;39101;53.478;6.158;2023-05-10T11:06:30;13.10;;;8.52;;
51499;SDS011;39101;53.478;6.158;2023-05-10T11:08:59;12.35;;;9.18;;
51499;SDS011;39101;53.478;6.158;2023-05-10T11:11:32;12.90;;;9.52;;
51499;SDS011;39101;53.478;6.158;2023-05-10T11:14:03;14.73;;;10.43;;
51499;SDS011;39101;53.478;6.158;2023-05-10T11:16:40;18.48;;;11.80;;
51499;SDS011;39101;53.478;6.158;2023-05-10T11:19:09;17.92;;;11.73;;
51499;SDS011;39101;53.478;6.158;2023-05-10T11:24:18;12.20;;;9.63;;
51499;SDS011;39101;53.478;6.158;2023-05-10T11:26:51;15.18;;;9.77;;
51499;SDS011;39101;53.478;6.158;2023-05-10T11:29:18;11.82;;;8.75;;
51499;SDS011;39101;53.478;6.158;2023-05-10T11:31:45;12.68;;;9.43;;
51499;SDS011;39101;53.478;6.158;2023-05-10T11:34:12;12.60;;;11.27;;
51499;SDS011;39101;53.478;6.158;2023-05-10T11:36:59;15.43;;;10.57;;
51499;SDS011;39101;53.478;6.158;2023-05-10T11:39:29;12.80;;;10.57;;
51499;SDS011;39101;53.478;6.158;2023-05-10T11:44:22;10.18;;;9.13;;
51499;SDS011;39101;53.478;6.158;2023-05-10T11:46:48;12.30;;;9.82;;
51499;SDS011;39101;53.478;6.158;2023-05-10T11:49:14;12.90;;;10.85;;
51499;SDS011;39101;53.478;6.158;2023-05-10T11:51:40;12.00;;;8.88;;
51499;SDS011;39101;53.478;6.158;2023-05-10T11:54:09;10.82;;;8.75;;
51499;SDS011;39101;53.478;6.158;2023-05-10T11:56:36;9.73;;;8.00;;
51499;SDS011;39101;53.478;6.158;2023-05-10T11:59:03;12.15;;;8.75;;
51499;SDS011;39101;53.478;6.158;2023-05-10T12:01:29;12.40;;;9.85;;
51499;SDS011;39101;53.478;6.158;2023-05-10T12:03:56;12.48;;;10.50;;
51499;SDS011;39101;53.478;6.158;2023-05-10T12:06:26;12.48;;;9.60;;
51499;SDS011;39101;53.478;6.158;2023-05-10T12:08:53;14.77;;;10.63;;
51499;SDS011;39101;53.478;6.158;2023-05-10T12:11:19;15.52;;;10.35;;
51499;SDS011;39101;53.478;6.158;2023-05-10T12:13:46;13.02;;;11.20;;
51499;SDS011;39101;53.478;6.158;2023-05-10T12:16:13;16.27;;;13.07;;
51499;SDS011;39101;53.478;6.158;2023-05-10T12:18:50;14.10;;;11.40;;
51499;SDS011;39101;53.478;6.158;2023-05-10T12:21:16;12.80;;;10.40;;
51499;SDS011;39101;53.478;6.158;2023-05-10T12:23:43;17.73;;;12.48;;
51499;SDS011;39101;53.478;6.158;2023-05-10T12:26:11;17.95;;;13.88;;
51499;SDS011;39101;53.478;6.158;2023-05-10T12:28:37;16.42;;;13.95;;
51499;SDS011;39101;53.478;6.158;2023-05-10T12:31:04;16.65;;;11.38;;
51499;SDS011;39101;53.478;6.158;2023-05-10T12:33:40;19.50;;;13.30;;
51499;SDS011;39101;53.478;6.158;2023-05-10T12:36:11;13.57;;;10.82;;
51499;SDS011;39101;53.478;6.158;2023-05-10T12:41:16;14.38;;;10.95;;
51499;SDS011;39101;53.478;6.158;2023-05-10T12:46:10;15.50;;;11.88;;
51499;SDS011;39101;53.478;6.158;2023-05-10T12:48:37;19.60;;;12.70;;
51499;SDS011;39101;53.478;6.158;2023-05-10T12:51:04;20.92;;;11.75;;
51499;SDS011;39101;53.478;6.158;2023-05-10T12:53:33;10.02;;;8.10;;
51499;SDS011;39101;53.478;6.158;2023-05-10T12:55:59;13.52;;;11.50;;
51499;SDS011;39101;53.478;6.158;2023-05-10T12:58:25;14.07;;;11.40;;
51499;SDS011;39101;53.478;6.158;2023-05-10T13:00:50;11.48;;;9.85;;
51499;SDS011;39101;53.478;6.158;2023-05-10T13:03:16;12.23;;;9.98;;
51499;SDS011;39101;53.478;6.158;2023-05-10T13:05:42;10.88;;;9.68;;
51499;SDS011;39101;53.478;6.158;2023-05-10T13:08:08;13.48;;;11.32;;
51499;SDS011;39101;53.478;6.158;2023-05-10T13:10:34;15.82;;;11.07;;
51499;SDS011;39101;53.478;6.158;2023-05-10T13:12:59;15.80;;;13.32;;
51499;SDS011;39101;53.478;6.158;2023-05-10T13:15:25;17.77;;;12.68;;
51499;SDS011;39101;53.478;6.158;2023-05-10T13:17:52;19.52;;;13.57;;
51499;SDS011;39101;53.478;6.158;2023-05-10T13:20:18;13.27;;;10.82;;
51499;SDS011;39101;53.478;6.158;2023-05-10T13:22:44;13.48;;;10.80;;
51499;SDS011;39101;53.478;6.158;2023-05-10T13:25:10;14.23;;;9.75;;
51499;SDS011;39101;53.478;6.158;2023-05-10T13:27:37;9.48;;;7.95;;
51499;SDS011;39101;53.478;6.158;2023-05-10T13:30:04;9.32;;;8.43;;
51499;SDS011;39101;53.478;6.158;2023-05-10T13:32:30;9.23;;;7.82;;
51499;SDS011;39101;53.478;6.158;2023-05-10T13:34:56;8.18;;;7.05;;
51499;SDS011;39101;53.478;6.158;2023-05-10T13:37:21;9.00;;;7.35;;
51499;SDS011;39101;53.478;6.158;2023-05-10T13:39:47;8.82;;;6.20;;
51499;SDS011;39101;53.478;6.158;2023-05-10T13:42:13;8.75;;;6.18;;
51499;SDS011;39101;53.478;6.158;2023-05-10T13:44:39;6.85;;;5.78;;
51499;SDS011;39101;53.478;6.158;2023-05-10T13:47:05;9.55;;;5.45;;
51499;SDS011;39101;53.478;6.158;2023-05-10T13:49:31;7.85;;;5.15;;
51499;SDS011;39101;53.478;6.158;2023-05-10T13:51:57;7.50;;;5.10;;
51499;SDS011;39101;53.478;6.158;2023-05-10T13:54:23;5.50;;;4.20;;
51499;SDS011;39101;53.478;6.158;2023-05-10T13:56:49;8.77;;;3.65;;
51499;SDS011;39101;53.478;6.158;2023-05-10T13:59:14;4.93;;;3.70;;
51499;SDS011;39101;53.478;6.158;2023-05-10T14:01:40;7.32;;;4.57;;
51499;SDS011;39101;53.478;6.158;2023-05-10T14:04:07;4.90;;;3.80;;
51499;SDS011;39101;53.478;6.158;2023-05-10T14:06:38;5.30;;;3.58;;
51499;SDS011;39101;53.478;6.158;2023-05-10T14:09:03;7.35;;;4.70;;
51499;SDS011;39101;53.478;6.158;2023-05-10T14:11:29;4.60;;;3.78;;
51499;SDS011;39101;53.478;6.158;2023-05-10T14:13:55;5.63;;;4.82;;
51499;SDS011;39101;53.478;6.158;2023-05-10T14:16:21;4.65;;;3.90;;
51499;SDS011;39101;53.478;6.158;2023-05-10T14:18:46;8.00;;;4.43;;
51499;SDS011;39101;53.478;6.158;2023-05-10T14:21:12;5.88;;;4.22;;
51499;SDS011;39101;53.478;6.158;2023-05-10T14:23:38;5.78;;;4.38;;
51499;SDS011;39101;53.478;6.158;2023-05-10T14:26:04;5.47;;;4.63;;
51499;SDS011;39101;53.478;6.158;2023-05-10T14:28:30;6.55;;;5.30;;
51499;SDS011;39101;53.478;6.158;2023-05-10T14:30:56;7.55;;;5.53;;
51499;SDS011;39101;53.478;6.158;2023-05-10T14:33:21;7.18;;;4.93;;
51499;SDS011;39101;53.478;6.158;2023-05-10T14:35:47;5.40;;;4.75;;
51499;SDS011;39101;53.478;6.158;2023-05-10T14:38:13;7.43;;;5.57;;
51499;SDS011;39101;53.478;6.158;2023-05-10T14:40:39;5.82;;;4.20;;
51499;SDS011;39101;53.478;6.158;2023-05-10T14:43:05;5.65;;;4.45;;
51499;SDS011;39101;53.478;6.158;2023-05-10T14:45:31;8.05;;;6.75;;
51499;SDS011;39101;53.478;6.158;2023-05-10T14:47:57;6.20;;;4.90;;
51499;SDS011;39101;53.478;6.158;2023-05-10T14:50:23;7.05;;;4.03;;
51499;SDS011;39101;53.478;6.158;2023-05-10T14:52:48;6.25;;;5.20;;
51499;SDS011;39101;53.478;6.158;2023-05-10T14:55:15;6.05;;;4.60;;
51499;SDS011;39101;53.478;6.158;2023-05-10T14:57:40;7.28;;;4.82;;
51499;SDS011;39101;53.478;6.158;2023-05-10T15:00:06;28.48;;;5.63;;
51499;SDS011;39101;53.478;6.158;2023-05-10T15:02:32;7.18;;;5.20;;
51499;SDS011;39101;53.478;6.158;2023-05-10T15:04:58;9.95;;;5.20;;
51499;SDS011;39101;53.478;6.158;2023-05-10T15:07:24;6.65;;;4.22;;
51499;SDS011;39101;53.478;6.158;2023-05-10T15:09:50;6.63;;;5.22;;
51499;SDS011;39101;53.478;6.158;2023-05-10T15:12:17;8.45;;;5.70;;
51499;SDS011;39101;53.478;6.158;2023-05-10T15:14:43;7.65;;;5.68;;
51499;SDS011;39101;53.478;6.158;2023-05-10T15:17:09;8.18;;;5.78;;
51499;SDS011;39101;53.478;6.158;2023-05-10T15:19:35;7.45;;;5.15;;
51499;SDS011;39101;53.478;6.158;2023-05-10T15:22:01;8.30;;;5.57;;
51499;SDS011;39101;53.478;6.158;2023-05-10T15:24:27;11.75;;;6.47;;